Shelton, CT (06484)

4:26 PM EDT on July 29, 2016 (GMT -0400)
wooded area | | Change Station

Elev 292 ft 41.29 °N, 73.15 °W | Updated 27 minutes ago

Clear
Clear
82.4 °F
Feels Like 86 °F
N
0.0
Wind Variable Wind from South

Today
High -- | Low -- °F
--% Chance of Precip.
Yesterday
High -- | Low -- °F
Precip. -- in
Pressure 29.83 in
Visibility 10.0 miles
Clouds Clear
Heat Index 86 °F
Dew Point 70 °F
Humidity 66%
Rainfall 0.53 in
Snow Depth Not available.
5:45 AM 8:12 PM
Waning Crescent, 19% visible
METAR KBDR 291952Z 16006KT 10SM CLR 27/19 A2983 RMK AO2 SLP100 T02720194
Pressure 29.83 in
Visibility 10.0 miles
Clouds Clear
Heat Index 86 °F
Dew Point 70 °F
Humidity 66%
Rainfall 0.53 in
Snow Depth Not available.
5:45 AM 8:12 PM
Waning Crescent, 19% visible
METAR KBDR 291952Z 16006KT 10SM CLR 27/19 A2983 RMK AO2 SLP100 T02720194

10-Day Weather Forecast

Almanac

Astronomy

Jul. 29, 2016 Rise Set
Actual Time
Civil Twilight
Nautical Twilight
Astronomical Twilight
Moon
Length of Visible Light
Length of Day
Tomorrow will be .
, % of the Moon is Illuminated

Today's Extremes

State Highs State Lows

Community

WunderPhotos

Upload Photos

1,928,407 photos uploaded!

WunderBlog® & News

Nearby

Air Quality

  Air Quality AQ Index Pollutant
Not available.

Snow Depth

Station Depth Elevation

Earthquake Activity

City Distance Mag. Time & Date
Minimum magnitude displayed is 2.5.

Coastal Water Temperatures

Place Temperature

Stations

Nearby Weather Stations

Station Location Temp. Windchill Dew Point Humidity Wind Precip. Elev Updated Type
                   

Watches & Warnings

There are currently no watches in effect.